createdAt,value
2022-12-04T00:12:40.871Z,6.87
2022-12-04T00:32:40.970Z,6.75
2022-12-04T00:52:40.834Z,6.87
2022-12-04T01:12:40.826Z,7.00
2022-12-04T01:32:40.849Z,6.75
2022-12-04T01:52:40.879Z,6.75
2022-12-04T02:12:40.957Z,6.87
2022-12-04T02:32:40.939Z,7.00
2022-12-04T02:52:40.839Z,7.25
2022-12-04T03:12:40.817Z,6.75
2022-12-04T03:32:40.829Z,6.87
2022-12-04T03:52:40.849Z,7.00
2022-12-04T04:12:40.889Z,7.00
2022-12-04T04:32:40.887Z,6.87
2022-12-04T04:52:40.883Z,7.00
2022-12-04T05:12:40.896Z,7.25
2022-12-04T05:32:40.824Z,7.25
2022-12-04T05:52:40.901Z,7.00
2022-12-04T06:12:40.852Z,7.12
2022-12-04T06:32:40.858Z,7.00
2022-12-04T06:52:40.949Z,7.12
2022-12-04T07:12:40.961Z,6.87
2022-12-04T07:32:40.897Z,7.00
2022-12-04T08:12:40.851Z,6.93
2022-12-04T08:32:40.871Z,6.93
2022-12-04T08:52:40.826Z,6.68
2022-12-04T09:12:40.844Z,6.93
2022-12-04T09:32:40.891Z,7.00
2022-12-04T09:52:40.906Z,7.18
2022-12-04T10:12:40.790Z,7.00
2022-12-04T10:32:40.896Z,7.18
2022-12-04T10:52:40.863Z,7.06
2022-12-04T11:12:40.920Z,7.06
2022-12-04T11:32:40.928Z,7.18
2022-12-04T11:52:40.804Z,7.18
2022-12-04T12:12:40.995Z,7.06
2022-12-04T12:32:41.039Z,7.06
2022-12-04T12:52:40.862Z,7.12
2022-12-04T13:12:40.841Z,7.12
2022-12-04T13:32:40.871Z,7.25
2022-12-04T13:52:41.061Z,7.18
2022-12-04T14:12:40.856Z,7.12
2022-12-04T14:32:40.765Z,7.31
2022-12-04T14:52:40.774Z,7.18
2022-12-04T15:12:40.796Z,7.25
2022-12-04T15:32:40.819Z,7.25
2022-12-04T15:52:40.843Z,7.31
2022-12-04T16:12:40.777Z,7.25
2022-12-04T16:32:40.763Z,7.12
2022-12-04T16:52:40.772Z,7.12
2022-12-04T17:12:40.791Z,7.25
2022-12-04T17:32:40.806Z,6.87
2022-12-04T17:52:40.852Z,6.93
2022-12-04T18:12:40.755Z,7.25
2022-12-04T18:32:40.747Z,7.31
2022-12-04T18:52:40.771Z,7.25
2022-12-04T19:12:40.785Z,7.56
2022-12-04T19:32:40.801Z,7.43
2022-12-04T19:52:40.708Z,7.43
2022-12-04T20:12:40.724Z,7.43
2022-12-04T20:32:40.736Z,7.43
2022-12-04T20:52:40.741Z,7.50
2022-12-04T21:12:40.752Z,7.50
2022-12-04T21:32:40.769Z,7.50
2022-12-04T21:52:40.778Z,7.50
2022-12-04T22:12:40.691Z,7.50
2022-12-04T22:32:40.700Z,7.56
2022-12-04T22:52:40.716Z,7.43
2022-12-04T23:12:40.727Z,7.62
2022-12-04T23:32:40.738Z,7.43
2022-12-04T23:52:40.744Z,7.37
